Time;durP1;ratioP1;P1;durP2;ratioP2;P2;SDS_P1;SDS_P2;PMS_P1;PMS_P2;Temp;Humidity;BMP_temperature;BMP_pressure;BME280_temperature;BME280_humidity;BME280_pressure;Samples;Min_cycle;Max_cycle;Signal;HPM_P1;HPM_P2
2022/05/07 00:00:36;;;;;;;0.50;0.50;;;10.70;99.90;;;;;;5027701;28;20041;-73
2022/05/07 00:03:01;;;;;;;0.55;0.55;;;10.70;99.90;;;;;;5013279;28;20400;-73
2022/05/07 00:05:27;;;;;;;0.63;0.63;;;10.70;99.90;;;;;;5026835;28;20032;-73
2022/05/07 00:07:53;;;;;;;1.30;1.30;;;10.70;99.90;;;;;;5042735;28;20041;-73
2022/05/07 00:10:19;;;;;;;1.25;1.25;;;10.70;99.90;;;;;;5027034;28;20049;-73
2022/05/07 00:12:45;;;;;;;4.57;2.53;;;10.80;99.90;;;;;;5027557;28;20048;-73
2022/05/07 00:15:11;;;;;;;1.92;1.83;;;10.80;99.90;;;;;;5040326;28;20045;-73
2022/05/07 00:20:20;;;;;;;1.02;1.02;;;10.80;99.90;;;;;;5010793;28;20049;-73
2022/05/07 00:22:46;;;;;;;1.25;1.13;;;10.90;99.90;;;;;;5012259;28;20036;-73
2022/05/07 00:25:12;;;;;;;2.85;2.10;;;10.90;99.90;;;;;;5049071;28;20095;-73
2022/05/07 00:27:38;;;;;;;0.68;0.68;;;10.80;99.90;;;;;;5058344;28;20154;-73
2022/05/07 00:30:05;;;;;;;1.77;1.67;;;10.90;99.90;;;;;;5048063;28;20123;-73
2022/05/07 00:32:31;;;;;;;1.10;1.10;;;10.80;99.90;;;;;;5008545;28;20092;-73
2022/05/07 00:34:57;;;;;;;1.90;1.83;;;10.80;99.90;;;;;;5038404;28;20052;-73
2022/05/07 00:37:23;;;;;;;0.88;0.88;;;10.80;99.90;;;;;;5031255;28;20132;-73
2022/05/07 00:39:49;;;;;;;1.50;1.38;;;10.80;99.90;;;;;;5051642;28;20099;-73
2022/05/07 00:42:15;;;;;;;1.35;1.25;;;10.90;99.90;;;;;;5032272;28;20063;-73
2022/05/07 00:44:41;;;;;;;1.60;1.50;;;10.90;99.90;;;;;;5030400;28;20047;-73
2022/05/07 00:47:20;;;;;;;3.92;3.30;;;10.90;99.90;;;;;;5037236;28;20242;-73
2022/05/07 00:49:47;;;;;;;3.05;2.85;;;10.90;99.90;;;;;;5047081;28;20064;-73
2022/05/07 00:52:18;;;;;;;2.75;2.55;;;10.90;99.90;;;;;;5014446;28;20456;-73
2022/05/07 00:54:45;;;;;;;7.55;5.57;;;10.90;99.90;;;;;;5029649;28;20381;-73
2022/05/07 00:57:12;;;;;;;2.92;2.72;;;11.00;99.90;;;;;;5032317;28;20045;-73
2022/05/07 00:59:38;;;;;;;2.55;2.35;;;11.00;99.90;;;;;;5056587;28;20075;-73
2022/05/07 01:02:04;;;;;;;1.25;1.20;;;11.00;99.90;;;;;;5036772;28;20062;-73
2022/05/07 01:04:30;;;;;;;1.50;1.45;;;11.00;99.90;;;;;;5032166;28;20124;-73
2022/05/07 01:06:56;;;;;;;6.22;3.80;;;11.10;99.90;;;;;;5024823;28;20041;-73
2022/05/07 01:09:22;;;;;;;2.08;1.98;;;11.10;99.90;;;;;;5015722;28;20072;-73
2022/05/07 01:11:48;;;;;;;2.42;2.33;;;11.10;99.90;;;;;;5024966;28;20099;-73
2022/05/07 01:14:14;;;;;;;3.60;2.65;;;11.20;99.90;;;;;;5033213;28;20032;-73
2022/05/07 01:16:39;;;;;;;0.77;0.77;;;11.20;99.90;;;;;;5041736;28;20102;-73
2022/05/07 01:19:05;;;;;;;1.10;1.10;;;11.20;99.90;;;;;;5005685;28;20033;-73
2022/05/07 01:21:30;;;;;;;1.58;1.48;;;11.30;99.90;;;;;;5016026;28;20057;-73
2022/05/07 01:23:56;;;;;;;4.47;2.10;;;11.30;99.90;;;;;;5031753;28;20036;-73
2022/05/07 01:26:23;;;;;;;18.92;6.53;;;11.40;99.90;;;;;;5021158;28;20064;-73
2022/05/07 01:28:49;;;;;;;1.38;1.33;;;11.40;99.90;;;;;;5051068;28;20048;-73
2022/05/07 01:31:16;;;;;;;1.42;1.42;;;11.40;99.90;;;;;;5021735;28;20037;-73
2022/05/07 01:33:42;;;;;;;2.10;2.00;;;11.40;99.90;;;;;;5014154;28;20071;-73
2022/05/07 01:36:11;;;;;;;1.20;1.20;;;11.40;99.90;;;;;;5031477;28;20048;-73
2022/05/07 01:38:37;;;;;;;3.25;2.28;;;11.50;99.90;;;;;;5016030;28;20087;-73
2022/05/07 01:41:03;;;;;;;2.17;2.08;;;11.50;99.90;;;;;;5030172;28;20104;-73
2022/05/07 01:43:32;;;;;;;1.48;1.48;;;11.50;99.90;;;;;;5030572;28;20543;-73
2022/05/07 01:45:58;;;;;;;2.08;1.98;;;11.50;99.90;;;;;;5056156;28;20041;-74
2022/05/07 01:48:24;;;;;;;9.07;6.72;;;11.50;99.90;;;;;;5031082;28;20514;-73
2022/05/07 01:50:50;;;;;;;1.40;1.40;;;11.50;99.90;;;;;;5026196;28;20060;-73
2022/05/07 01:53:16;;;;;;;13.65;3.63;;;11.50;99.90;;;;;;5012362;28;20078;-73
2022/05/07 01:55:41;;;;;;;1.50;1.50;;;11.60;99.90;;;;;;5036939;28;20041;-74
2022/05/07 01:58:07;;;;;;;5.40;4.35;;;11.60;99.90;;;;;;5026002;28;20038;-73
2022/05/07 02:00:34;;;;;;;2.63;2.42;;;11.60;99.90;;;;;;5011698;28;20131;-73
2022/05/07 02:03:00;;;;;;;1.75;1.73;;;11.60;99.90;;;;;;5029587;28;20168;-73
2022/05/07 02:05:27;;;;;;;2.08;1.98;;;11.60;99.90;;;;;;5010813;28;20029;-73
2022/05/07 02:07:54;;;;;;;0.80;0.80;;;11.60;99.90;;;;;;5045047;28;20421;-73
2022/05/07 02:10:20;;;;;;;3.05;2.55;;;11.60;99.90;;;;;;5012708;28;20051;-73
2022/05/07 02:12:47;;;;;;;7.65;3.15;;;11.60;99.90;;;;;;5023864;28;20067;-73
2022/05/07 02:15:12;;;;;;;1.00;1.00;;;11.70;99.90;;;;;;5048493;28;20056;-73
2022/05/07 02:17:38;;;;;;;2.00;1.90;;;11.70;99.90;;;;;;5012745;28;20504;-74
2022/05/07 02:20:04;;;;;;;1.13;1.13;;;11.70;99.90;;;;;;5031030;28;20075;-74
2022/05/07 02:22:30;;;;;;;1.10;1.10;;;11.70;99.90;;;;;;5014512;28;20132;-73
2022/05/07 02:24:58;;;;;;;4.22;2.83;;;11.70;99.90;;;;;;5019654;28;20553;-73
2022/05/07 02:27:24;;;;;;;0.40;0.40;;;11.70;99.90;;;;;;5012223;28;20044;-74
2022/05/07 02:29:50;;;;;;;0.85;0.85;;;11.70;99.90;;;;;;4996900;28;20162;-74
2022/05/07 02:32:15;;;;;;;2.45;2.25;;;11.70;99.90;;;;;;5030806;28;20068;-74
2022/05/07 02:34:42;;;;;;;0.60;0.60;;;11.70;99.90;;;;;;5017413;28;20095;-74
2022/05/07 02:37:08;;;;;;;0.73;0.73;;;11.70;99.90;;;;;;5045311;28;20595;-73
2022/05/07 02:39:33;;;;;;;0.70;0.70;;;11.70;99.90;;;;;;5031684;28;20037;-74
2022/05/07 02:44:44;;;;;;;1.63;1.58;;;11.70;99.90;;;;;;5025005;28;20463;-73
2022/05/07 02:47:09;;;;;;;0.88;0.80;;;11.70;99.90;;;;;;5030923;28;20123;-73
2022/05/07 02:49:35;;;;;;;0.70;0.70;;;11.70;99.90;;;;;;5029603;28;20433;-73
2022/05/07 02:52:01;;;;;;;0.77;0.77;;;11.70;99.90;;;;;;5047241;28;20083;-74
2022/05/07 02:54:27;;;;;;;0.63;0.63;;;11.60;99.90;;;;;;5020286;28;20040;-73
2022/05/07 02:56:53;;;;;;;0.40;0.40;;;11.70;99.90;;;;;;5021460;28;20489;-73
2022/05/07 02:59:19;;;;;;;2.47;1.55;;;11.60;99.90;;;;;;5037510;28;21117;-73
2022/05/07 03:01:45;;;;;;;0.60;0.60;;;11.60;99.90;;;;;;5014879;28;20135;-73
2022/05/07 03:04:10;;;;;;;121.30;48.95;;;11.50;99.90;;;;;;5015476;28;20047;-73
2022/05/07 03:06:36;;;;;;;14.95;5.13;;;11.50;99.90;;;;;;5005461;28;20092;-73
2022/05/07 03:09:03;;;;;;;1.20;1.20;;;11.50;99.90;;;;;;5020557;28;20030;-73
2022/05/07 03:11:32;;;;;;;2.67;2.47;;;11.50;99.90;;;;;;5004470;28;20063;-73
2022/05/07 03:13:58;;;;;;;5.88;3.72;;;11.40;99.90;;;;;;5033457;28;20397;-73
2022/05/07 03:16:24;;;;;;;11.20;5.68;;;11.40;99.90;;;;;;5031765;28;20037;-73
2022/05/07 03:18:49;;;;;;;6.85;5.15;;;11.40;99.90;;;;;;5035472;28;20059;-74
2022/05/07 03:21:15;;;;;;;1.98;1.88;;;11.50;99.90;;;;;;5013554;28;20033;-74
2022/05/07 03:23:42;;;;;;;2.38;2.17;;;11.40;99.90;;;;;;5007066;28;20041;-74
2022/05/07 03:26:07;;;;;;;1.67;1.65;;;11.50;99.90;;;;;;5035092;28;20429;-74
2022/05/07 03:28:33;;;;;;;3.00;2.83;;;11.40;99.90;;;;;;5017603;28;20128;-74
2022/05/07 03:31:00;;;;;;;3.60;2.75;;;11.50;99.90;;;;;;5029541;28;20045;-74
2022/05/07 03:33:26;;;;;;;3.13;1.77;;;11.50;99.90;;;;;;5014205;28;20087;-74
2022/05/07 03:35:51;;;;;;;3.00;2.70;;;11.50;99.90;;;;;;5035893;28;20036;-74
2022/05/07 03:38:17;;;;;;;2.10;2.00;;;11.40;99.90;;;;;;5011057;28;20048;-73
2022/05/07 03:40:43;;;;;;;1.40;1.40;;;11.40;99.90;;;;;;5018651;28;20542;-74
2022/05/07 03:43:08;;;;;;;1.85;1.80;;;11.40;99.90;;;;;;5016348;28;20103;-74
2022/05/07 03:45:34;;;;;;;3.47;3.17;;;11.40;99.90;;;;;;5023905;28;20485;-74
2022/05/07 03:48:00;;;;;;;1.60;1.60;;;11.40;99.90;;;;;;5027870;28;20680;-74
2022/05/07 03:50:25;;;;;;;1.60;1.60;;;11.40;99.90;;;;;;5040269;28;20079;-73
2022/05/07 03:55:41;;;;;;;2.72;2.47;;;11.30;99.90;;;;;;5025795;28;20049;-73
2022/05/07 03:58:17;;;;;;;2.85;2.75;;;11.30;99.90;;;;;;5026405;28;20491;-74
2022/05/07 04:00:44;;;;;;;1.60;1.60;;;11.30;99.90;;;;;;5049978;28;20048;-74
2022/05/07 04:03:13;;;;;;;2.00;1.90;;;11.30;99.90;;;;;;5026170;28;20044;-73
2022/05/07 04:05:39;;;;;;;3.78;3.35;;;11.30;99.90;;;;;;5012934;28;20040;-74
2022/05/07 04:08:05;;;;;;;4.22;3.30;;;11.30;99.90;;;;;;5020410;28;20051;-73
2022/05/07 04:10:31;;;;;;;1.73;1.73;;;11.30;99.90;;;;;;5003754;28;20504;-74
2022/05/07 04:12:57;;;;;;;2.15;2.05;;;11.30;99.90;;;;;;5036731;28;20136;-73
2022/05/07 04:15:22;;;;;;;2.03;1.83;;;11.40;99.90;;;;;;5013203;28;20041;-73
2022/05/07 04:17:49;;;;;;;2.08;1.98;;;11.40;99.90;;;;;;5038516;28;20046;-73
2022/05/07 04:20:15;;;;;;;2.17;2.08;;;11.30;99.90;;;;;;5063374;28;20512;-73
2022/05/07 04:22:40;;;;;;;1.67;1.67;;;11.40;99.90;;;;;;5038843;28;20124;-73
2022/05/07 04:25:08;;;;;;;27.98;4.60;;;11.40;99.90;;;;;;5033118;28;20041;-73
2022/05/07 04:27:35;;;;;;;9.25;8.65;;;11.40;99.90;;;;;;5050302;28;20041;-73
2022/05/07 04:30:00;;;;;;;1.08;1.08;;;11.40;99.90;;;;;;5015676;28;20041;-73
2022/05/07 04:32:27;;;;;;;1.38;1.33;;;11.40;99.90;;;;;;5016937;28;20124;-74
2022/05/07 04:34:55;;;;;;;2.70;2.17;;;11.40;99.90;;;;;;5019689;28;20044;-74
2022/05/07 04:37:21;;;;;;;1.63;1.63;;;11.40;99.90;;;;;;5031674;28;20044;-74
2022/05/07 04:39:47;;;;;;;1.23;1.23;;;11.40;99.90;;;;;;5029761;28;20052;-74
2022/05/07 04:42:13;;;;;;;2.92;2.75;;;11.50;99.90;;;;;;5025290;28;20412;-73
2022/05/07 04:44:39;;;;;;;0.95;0.95;;;11.50;99.90;;;;;;5038413;28;20033;-74
2022/05/07 04:47:05;;;;;;;1.30;1.30;;;11.50;99.90;;;;;;5016657;28;20056;-74
2022/05/07 04:49:31;;;;;;;0.90;0.90;;;11.50;99.90;;;;;;5048774;28;20037;-73
2022/05/07 04:51:57;;;;;;;1.42;1.42;;;11.60;99.90;;;;;;5056703;28;20041;-73
2022/05/07 04:54:23;;;;;;;2.72;2.53;;;11.60;99.90;;;;;;5039843;28;20606;-74
2022/05/07 04:56:50;;;;;;;3.05;2.58;;;11.60;99.90;;;;;;5044638;28;20047;-73
2022/05/07 04:59:17;;;;;;;5.68;4.75;;;11.60;99.90;;;;;;5018252;28;20052;-73
2022/05/07 05:01:43;;;;;;;3.00;2.75;;;11.70;99.90;;;;;;5008343;28;20045;-74
2022/05/07 05:04:09;;;;;;;2.08;1.98;;;11.70;99.90;;;;;;5057463;28;20032;-74
2022/05/07 05:06:34;;;;;;;1.10;1.10;;;11.70;99.90;;;;;;5063162;28;20040;-74
2022/05/07 05:09:01;;;;;;;1.90;1.80;;;11.70;99.90;;;;;;5025989;28;20556;-74
2022/05/07 05:11:26;;;;;;;2.35;2.25;;;11.70;99.90;;;;;;5033429;28;20555;-74
2022/05/07 05:13:52;;;;;;;1.73;1.63;;;11.80;99.90;;;;;;5016570;28;20068;-74
2022/05/07 05:16:18;;;;;;;2.38;2.28;;;11.80;99.90;;;;;;5045152;28;20692;-74
2022/05/07 05:18:44;;;;;;;4.38;4.15;;;11.80;99.90;;;;;;5015751;28;20128;-74
2022/05/07 05:21:09;;;;;;;2.13;2.03;;;11.90;99.90;;;;;;5048890;28;20484;-74
2022/05/07 05:23:35;;;;;;;1999.90;999.90;;;12.00;99.90;;;;;;5015202;28;20070;-74
2022/05/07 05:26:01;;;;;;;33.15;5.30;;;12.00;99.90;;;;;;5032028;28;20483;-74
2022/05/07 05:28:26;;;;;;;1036.47;560.67;;;12.10;99.90;;;;;;5014984;28;20137;-74
2022/05/07 05:30:52;;;;;;;0.30;0.30;;;12.10;99.90;;;;;;5038066;28;20040;-74
2022/05/07 05:33:21;;;;;;;0.50;0.50;;;12.20;99.90;;;;;;5030047;28;20544;-74
2022/05/07 05:35:48;;;;;;;0.40;0.40;;;12.30;99.90;;;;;;5024561;28;20044;-74
2022/05/07 05:38:15;;;;;;;0.40;0.40;;;12.30;99.90;;;;;;5064435;28;20134;-74
2022/05/07 05:40:41;;;;;;;0.85;0.85;;;12.40;99.90;;;;;;5027530;28;20052;-74
2022/05/07 05:43:07;;;;;;;0.75;0.75;;;12.40;99.90;;;;;;5047675;28;20049;-74
2022/05/07 05:45:33;;;;;;;0.45;0.45;;;12.60;99.90;;;;;;5030735;28;20045;-74
2022/05/07 05:48:01;;;;;;;1.48;1.48;;;12.60;99.90;;;;;;5017727;28;20385;-74
2022/05/07 05:50:29;;;;;;;0.40;0.40;;;12.70;99.90;;;;;;5016577;28;20065;-74
2022/05/07 05:52:55;;;;;;;0.35;0.35;;;12.80;99.90;;;;;;5058178;28;20053;-74
2022/05/07 05:55:21;;;;;;;0.55;0.55;;;12.90;99.90;;;;;;5025470;28;20045;-74
2022/05/07 05:57:47;;;;;;;0.55;0.55;;;13.00;99.90;;;;;;5033569;28;20085;-74
2022/05/07 06:00:13;;;;;;;4.45;3.13;;;13.20;99.90;;;;;;5029665;28;20420;-74
2022/05/07 06:02:39;;;;;;;0.93;0.85;;;13.40;99.90;;;;;;5050765;28;20033;-74
2022/05/07 06:05:05;;;;;;;0.40;0.40;;;13.60;99.90;;;;;;5022479;28;20110;-74
2022/05/07 06:07:30;;;;;;;0.73;0.73;;;13.70;99.90;;;;;;5031291;28;20052;-74
2022/05/07 06:09:56;;;;;;;0.38;0.38;;;13.80;99.90;;;;;;5026269;28;20041;-74
2022/05/07 06:12:22;;;;;;;4.28;0.98;;;13.90;99.90;;;;;;5027412;28;20488;-74
2022/05/07 06:14:47;;;;;;;1.58;1.48;;;14.00;99.90;;;;;;5037181;28;20041;-73
2022/05/07 06:17:13;;;;;;;0.50;0.50;;;14.00;99.90;;;;;;5022781;28;20479;-73
2022/05/07 06:19:39;;;;;;;0.47;0.47;;;14.00;99.90;;;;;;5014990;28;20037;-73
2022/05/07 06:22:04;;;;;;;2.58;2.38;;;14.00;99.90;;;;;;5014801;28;20033;-73
2022/05/07 06:27:31;;;;;;;0.30;0.30;;;14.20;99.90;;;;;;5053522;28;20459;-74
2022/05/07 06:29:57;;;;;;;0.95;0.95;;;14.40;99.90;;;;;;5031638;28;20087;-74
2022/05/07 06:32:24;;;;;;;0.95;0.52;;;14.50;99.90;;;;;;5021759;28;20040;-74
2022/05/07 06:34:50;;;;;;;2.65;2.45;;;14.70;99.90;;;;;;5057860;28;20458;-74
2022/05/07 06:37:16;;;;;;;0.40;0.40;;;14.70;99.90;;;;;;5012577;28;20128;-74
2022/05/07 06:39:41;;;;;;;1.83;1.73;;;14.70;99.90;;;;;;5008823;28;20125;-74
2022/05/07 06:42:07;;;;;;;0.60;0.60;;;15.00;99.90;;;;;;5025428;28;20040;-75
2022/05/07 06:44:33;;;;;;;0.60;0.60;;;15.70;99.90;;;;;;5029990;28;20433;-74
2022/05/07 06:46:59;;;;;;;1.88;1.77;;;16.40;99.90;;;;;;5038953;28;20037;-75
2022/05/07 06:49:25;;;;;;;0.57;0.57;;;17.30;99.90;;;;;;5022704;28;20116;-74
2022/05/07 06:51:51;;;;;;;4.60;3.80;;;17.90;99.90;;;;;;5031646;28;20360;-74
2022/05/07 06:54:17;;;;;;;0.85;0.85;;;18.50;99.90;;;;;;5029658;28;20045;-74
2022/05/07 06:56:43;;;;;;;1.00;1.00;;;19.00;99.90;;;;;;5019349;28;20041;-74
2022/05/07 06:59:10;;;;;;;5.40;2.97;;;19.60;99.90;;;;;;5018030;28;20147;-74
2022/05/07 07:01:36;;;;;;;5.45;4.82;;;20.10;99.90;;;;;;5028845;28;20167;-74
2022/05/07 07:04:02;;;;;;;11.90;7.95;;;20.10;99.90;;;;;;5031267;28;20059;-74
2022/05/07 07:06:28;;;;;;;4.97;3.85;;;20.20;99.90;;;;;;5041831;28;20121;-74
2022/05/07 07:08:54;;;;;;;17.23;5.75;;;20.30;99.90;;;;;;5026606;28;20500;-74
2022/05/07 07:11:23;;;;;;;7.18;5.63;;;20.50;99.90;;;;;;5023231;28;20064;-74
2022/05/07 07:13:49;;;;;;;2.15;1.95;;;20.60;99.90;;;;;;5029151;28;20179;-74
2022/05/07 07:16:15;;;;;;;4.95;3.05;;;20.80;99.90;;;;;;5020414;28;20044;-74
2022/05/07 07:18:40;;;;;;;7.50;4.93;;;20.90;99.90;;;;;;5050766;28;20166;-74
2022/05/07 07:21:06;;;;;;;13.65;7.07;;;20.90;99.90;;;;;;5044774;28;20490;-74
2022/05/07 07:23:32;;;;;;;9.75;4.97;;;20.20;99.90;;;;;;5013303;28;20586;-74
2022/05/07 07:25:57;;;;;;;0.93;0.90;;;19.60;99.90;;;;;;5037810;28;20044;-74
2022/05/07 07:28:23;;;;;;;1.83;1.70;;;19.20;99.90;;;;;;5026260;28;20496;-74
2022/05/07 07:30:49;;;;;;;10.63;5.40;;;19.00;99.90;;;;;;5032504;28;20041;-74
2022/05/07 07:33:15;;;;;;;4.45;3.35;;;18.70;99.90;;;;;;5011801;28;20529;-74
2022/05/07 07:35:44;;;;;;;7.55;5.47;;;18.40;99.90;;;;;;5037610;28;20066;-74
2022/05/07 07:38:10;;;;;;;12.80;8.93;;;18.30;99.90;;;;;;5030703;28;20045;-74
2022/05/07 07:40:36;;;;;;;19.52;9.60;;;18.20;99.90;;;;;;5024579;28;20080;-74
2022/05/07 07:43:01;;;;;;;196.27;29.08;;;17.90;99.90;;;;;;5018639;28;20072;-74
2022/05/07 07:48:12;;;;;;;12.98;8.20;;;17.60;99.90;;;;;;5058510;28;20139;-74
2022/05/07 07:50:38;;;;;;;8.57;4.90;;;17.50;99.90;;;;;;5037630;28;20144;-74
2022/05/07 07:53:08;;;;;;;2.13;1.55;;;17.50;99.90;;;;;;5055418;28;20818;-74
2022/05/07 07:55:37;;;;;;;5.10;2.33;;;17.60;99.90;;;;;;5050160;28;20518;-74
2022/05/07 07:58:05;;;;;;;10.32;7.20;;;17.60;99.90;;;;;;5013211;28;20409;-74
2022/05/07 08:00:32;;;;;;;15.30;5.82;;;17.70;99.90;;;;;;5017889;28;20424;-73
2022/05/07 08:03:03;;;;;;;16.67;10.15;;;17.80;99.90;;;;;;5032980;28;20047;-73
2022/05/07 08:05:36;;;;;;;1.30;1.20;;;17.70;99.90;;;;;;5033138;28;20037;-73
2022/05/07 08:13:43;;;;;;;5.18;4.38;;;17.70;99.90;;;;;;5054684;28;20045;-73
2022/05/07 08:16:10;;;;;;;4.63;2.75;;;17.50;99.90;;;;;;5031673;28;20044;-73
2022/05/07 08:18:36;;;;;;;9.40;4.38;;;17.30;99.90;;;;;;5031259;28;20076;-73
2022/05/07 08:21:02;;;;;;;0.65;0.65;;;17.10;99.90;;;;;;5029298;28;20041;-73
2022/05/07 08:23:28;;;;;;;1.75;1.10;;;17.00;99.90;;;;;;5014129;28;20497;-73
2022/05/07 08:25:54;;;;;;;0.40;0.40;;;16.80;99.90;;;;;;5029252;28;20040;-73
2022/05/07 08:28:20;;;;;;;160.98;127.05;;;16.70;99.90;;;;;;5015082;28;20037;-73
2022/05/07 08:30:49;;;;;;;43.88;34.97;;;16.80;99.90;;;;;;5027462;28;20045;-73
2022/05/07 08:33:17;;;;;;;8.63;6.13;;;16.70;99.90;;;;;;5017002;28;20048;-73
2022/05/07 08:35:43;;;;;;;5.40;4.90;;;16.60;99.90;;;;;;5048543;28;20336;-73
2022/05/07 08:38:09;;;;;;;10.90;6.03;;;16.50;99.90;;;;;;5031161;28;20076;-73
2022/05/07 08:40:35;;;;;;;2.67;2.30;;;16.40;99.90;;;;;;5014594;28;20071;-73
2022/05/07 08:43:02;;;;;;;4.45;4.05;;;16.30;99.90;;;;;;5020364;28;20312;-73
2022/05/07 08:45:28;;;;;;;1.00;1.00;;;16.30;99.90;;;;;;5027719;28;20059;-74
2022/05/07 08:47:53;;;;;;;6.88;4.13;;;16.30;99.90;;;;;;5010240;28;20068;-73
2022/05/07 08:50:20;;;;;;;1.08;1.08;;;16.30;99.90;;;;;;5017619;28;20080;-73
2022/05/07 08:52:46;;;;;;;0.70;0.63;;;16.30;99.90;;;;;;5046943;28;20049;-74
2022/05/07 08:55:14;;;;;;;8.38;6.25;;;16.50;99.90;;;;;;5026590;28;20653;-73
2022/05/07 08:57:41;;;;;;;1.88;1.48;;;16.50;99.90;;;;;;5030126;28;20049;-74
2022/05/07 09:00:09;;;;;;;9.63;5.95;;;16.50;99.90;;;;;;5049854;28;20045;-73
2022/05/07 09:03:04;;;;;;;12.52;8.93;;;16.60;99.90;;;;;;5031144;28;20045;-74
2022/05/07 09:05:35;;;;;;;5.82;4.40;;;16.60;99.90;;;;;;4952133;28;20141;-73
2022/05/07 09:08:02;;;;;;;16.48;7.53;;;16.70;99.90;;;;;;4948045;28;20523;-73
2022/05/07 09:10:34;;;;;;;8.25;6.30;;;16.70;99.90;;;;;;4950092;28;20275;-73
2022/05/07 09:13:19;;;;;;;15.02;6.72;;;16.80;99.90;;;;;;4951663;28;20042;-74
2022/05/07 09:15:50;;;;;;;13.68;8.63;;;17.00;99.90;;;;;;4947123;28;20556;-74
2022/05/07 09:18:18;;;;;;;9.80;7.50;;;17.10;99.90;;;;;;4957243;28;20050;-74
2022/05/07 09:20:44;;;;;;;27.50;13.13;;;17.20;99.90;;;;;;4938635;28;20042;-74
2022/05/07 09:23:12;;;;;;;19.20;11.40;;;17.30;99.90;;;;;;4947398;28;20078;-74
2022/05/07 09:25:48;;;;;;;10.30;7.00;;;17.20;99.90;;;;;;4956956;28;20049;-73
2022/05/07 09:28:25;;;;;;;11.32;6.80;;;17.30;99.90;;;;;;4938602;28;20415;-74
2022/05/07 09:30:55;;;;;;;10.50;5.65;;;17.50;99.90;;;;;;4942689;28;20082;-74
2022/05/07 09:33:31;;;;;;;27.20;7.10;;;17.80;99.90;;;;;;4950491;28;20053;-74
2022/05/07 09:36:09;;;;;;;1999.90;999.90;;;18.00;99.90;;;;;;4952884;28;20070;-74
2022/05/07 09:38:34;;;;;;;5.55;2.53;;;18.20;99.90;;;;;;4949470;28;20121;-74
2022/05/07 09:41:00;;;;;;;1999.90;999.90;;;18.20;99.90;;;;;;4948503;28;20177;-74
2022/05/07 09:43:26;;;;;;;14.68;6.68;;;18.30;99.90;;;;;;5015400;28;20079;-74
2022/05/07 09:45:52;;;;;;;10.65;5.03;;;18.30;99.90;;;;;;5015201;28;20123;-74
2022/05/07 09:48:18;;;;;;;11.38;3.60;;;18.30;99.90;;;;;;5036735;28;20147;-74
2022/05/07 09:50:44;;;;;;;1.95;1.75;;;18.10;99.90;;;;;;5020362;28;20110;-74
2022/05/07 09:58:45;;;;;;;648.35;287.92;;;17.60;99.90;;;;;;5023914;28;20057;-73
2022/05/07 10:01:44;;;;;;;675.72;413.38;;;17.60;99.90;;;;;;5013686;28;20088;-73
2022/05/07 10:04:33;;;;;;;15.18;9.80;;;17.70;99.90;;;;;;5005434;28;20053;-73
2022/05/07 10:06:58;;;;;;;22.67;10.95;;;17.80;99.90;;;;;;4991745;28;20519;-72
2022/05/07 10:09:33;;;;;;;23.27;11.75;;;17.90;99.90;;;;;;4999367;28;20079;-73
2022/05/07 10:12:00;;;;;;;267.92;13.98;;;17.90;99.90;;;;;;4999419;28;20401;-73
2022/05/07 10:14:30;;;;;;;4.15;3.28;;;17.90;99.90;;;;;;5029085;28;20037;-73
2022/05/07 10:17:01;;;;;;;13.52;7.65;;;18.00;99.90;;;;;;4996099;28;20251;-73
2022/05/07 10:20:04;;;;;;;3.40;2.85;;;18.20;99.90;;;;;;5018455;28;20098;-73
2022/05/07 10:22:29;;;;;;;;;;;18.30;99.90;;;;;;5002881;28;20452;-73
2022/05/07 10:25:12;;;;;;;36.00;33.28;;;18.30;99.90;;;;;;5016062;28;19925;-73
2022/05/07 10:27:43;;;;;;;4.20;3.25;;;18.30;99.90;;;;;;5015600;28;20049;-73
2022/05/07 10:30:16;;;;;;;22.95;10.20;;;18.20;99.90;;;;;;5014435;28;20042;-73
2022/05/07 10:32:57;;;;;;;;;;;18.10;99.90;;;;;;4993733;28;20041;-73
2022/05/07 10:35:40;;;;;;;7.60;4.70;;;17.90;99.90;;;;;;5011428;28;20007;-73
2022/05/07 10:38:16;;;;;;;;;;;17.70;99.90;;;;;;5011389;28;20064;-74
2022/05/07 10:40:55;;;;;;;3.80;2.70;;;17.70;99.90;;;;;;5010598;28;19921;-73
2022/05/07 10:43:42;;;;;;;13.32;6.30;;;17.60;99.90;;;;;;5008150;28;20068;-73
2022/05/07 10:46:08;;;;;;;8.35;2.83;;;17.40;99.90;;;;;;5011211;28;20398;-73
2022/05/07 10:48:50;;;;;;;2.92;2.53;;;17.30;99.90;;;;;;5000801;28;20087;-74
2022/05/07 10:51:39;;;;;;;39.97;17.95;;;17.30;99.90;;;;;;4997910;28;20065;-73
2022/05/07 10:54:22;;;;;;;18.42;9.70;;;17.30;99.90;;;;;;5004827;28;20049;-73
2022/05/07 10:56:53;;;;;;;24.55;12.85;;;17.30;99.90;;;;;;4991871;28;20045;-73
2022/05/07 10:59:20;;;;;;;7.55;4.82;;;17.40;99.90;;;;;;4994992;28;20045;-74
2022/05/07 11:01:46;;;;;;;5.15;3.85;;;17.40;99.90;;;;;;4990816;28;20048;-74
2022/05/07 11:04:13;;;;;;;16.88;8.60;;;17.40;99.90;;;;;;4990563;28;20413;-74
2022/05/07 11:06:43;;;;;;;81.22;74.25;;;17.60;99.90;;;;;;5011087;28;20041;-73
2022/05/07 11:09:15;;;;;;;48.20;8.27;;;17.60;99.90;;;;;;5009458;28;20041;-74
2022/05/07 11:11:46;;;;;;;27.75;14.20;;;17.50;99.90;;;;;;5009155;28;20112;-74
2022/05/07 11:14:24;;;;;;;10.13;6.50;;;17.40;99.90;;;;;;4994115;28;20049;-74
2022/05/07 11:16:51;;;;;;;10.57;5.85;;;17.20;99.90;;;;;;4994071;28;20045;-73
2022/05/07 11:19:35;;;;;;;6.88;3.88;;;17.10;99.90;;;;;;5007839;28;20432;-74
2022/05/07 11:22:05;;;;;;;22.25;13.10;;;17.10;99.90;;;;;;5010816;28;20048;-74
2022/05/07 11:24:32;;;;;;;28.52;14.98;;;17.10;99.90;;;;;;5019484;28;20037;-73
2022/05/07 11:27:02;;;;;;;7.80;4.70;;;17.10;99.90;;;;;;5010302;28;20710;-74
2022/05/07 11:29:29;;;;;;;12.25;8.40;;;17.10;99.90;;;;;;5010882;28;20420;-73
2022/05/07 11:31:56;;;;;;;7.72;4.72;;;17.00;99.90;;;;;;5010189;28;20120;-73
2022/05/07 11:34:39;;;;;;;10.07;6.35;;;17.00;99.90;;;;;;5010802;28;20033;-73
2022/05/07 11:37:21;;;;;;;886.17;540.33;;;17.00;99.90;;;;;;4991725;28;20059;-73
2022/05/07 11:39:51;;;;;;;44.95;40.97;;;17.10;99.90;;;;;;5024124;28;20107;-74
2022/05/07 11:42:38;;;;;;;16.73;15.75;;;17.20;99.90;;;;;;5009298;28;20052;-73
2022/05/07 11:45:31;;;;;;;31.80;28.83;;;17.30;99.90;;;;;;4988613;28;20128;-73
2022/05/07 11:47:57;;;;;;;;;;;17.50;99.90;;;;;;5007639;28;20045;-73
2022/05/07 11:50:34;;;;;;;1.92;1.77;;;17.60;99.90;;;;;;5010610;28;19986;-73
2022/05/07 11:53:21;;;;;;;3.45;2.60;;;17.80;99.90;;;;;;4988567;28;20611;-73
2022/05/07 11:55:48;;;;;;;7.05;2.38;;;18.10;99.90;;;;;;4993518;28;20527;-74
2022/05/07 11:58:20;;;;;;;3.83;1.73;;;18.20;99.90;;;;;;5009672;28;20041;-73
2022/05/07 12:00:47;;;;;;;6.40;2.85;;;18.30;99.90;;;;;;4984781;28;20072;-73
2022/05/07 12:03:18;;;;;;;1.42;1.15;;;18.50;99.90;;;;;;4997440;28;20092;-73
2022/05/07 12:05:50;;;;;;;4.78;2.08;;;18.90;99.90;;;;;;4986460;28;20156;-74
2022/05/07 12:08:16;;;;;;;3.23;2.47;;;19.20;99.90;;;;;;4992675;28;20489;-73
2022/05/07 12:10:43;;;;;;;2.92;1.85;;;19.20;99.90;;;;;;5007125;28;20326;-73
2022/05/07 12:13:10;;;;;;;4.13;2.83;;;19.20;99.90;;;;;;5005674;28;20067;-73
2022/05/07 12:18:27;;;;;;;1.92;1.65;;;19.10;99.90;;;;;;5019047;28;20052;-73
2022/05/07 12:20:54;;;;;;;4.57;3.05;;;19.10;99.90;;;;;;4999677;28;20050;-73
2022/05/07 12:31:57;;;;;;;2.97;1.92;;;18.90;99.90;;;;;;4924446;29;20415;-73
2022/05/07 12:34:23;;;;;;;2.55;1.85;;;18.90;99.90;;;;;;4976031;28;20102;-74
2022/05/07 12:36:48;;;;;;;2.17;2.03;;;18.90;99.90;;;;;;5013366;28;20041;-73
2022/05/07 12:39:14;;;;;;;3.67;2.60;;;18.70;99.90;;;;;;4990111;28;20111;-74
2022/05/07 12:41:41;;;;;;;5.10;3.72;;;18.50;99.90;;;;;;5020219;28;20034;-73
2022/05/07 12:44:07;;;;;;;1.20;1.10;;;18.40;99.90;;;;;;5004749;28;20921;-73
2022/05/07 12:46:33;;;;;;;2.97;2.17;;;18.40;99.90;;;;;;5002445;28;20113;-74
2022/05/07 12:48:58;;;;;;;1.30;1.00;;;18.50;99.90;;;;;;5009549;28;20435;-74
2022/05/07 12:51:25;;;;;;;5.72;2.85;;;18.80;99.90;;;;;;4988603;28;20409;-74
2022/05/07 12:53:52;;;;;;;701.63;627.20;;;19.20;99.90;;;;;;5008556;28;20073;-73
2022/05/07 12:56:18;;;;;;;5.32;3.53;;;19.40;99.90;;;;;;4992592;28;20049;-73
2022/05/07 12:58:43;;;;;;;3.60;2.55;;;19.40;99.90;;;;;;5007503;28;20501;-73
2022/05/07 13:01:11;;;;;;;2.22;1.65;;;19.30;99.90;;;;;;5023149;28;20052;-74
2022/05/07 13:03:37;;;;;;;3.78;2.15;;;19.20;99.90;;;;;;5010093;28;20044;-74
2022/05/07 13:06:03;;;;;;;5.05;2.92;;;18.90;99.90;;;;;;5002872;28;20033;-74
2022/05/07 13:08:28;;;;;;;2.63;2.28;;;18.70;99.90;;;;;;4989237;28;20034;-74
2022/05/07 13:10:54;;;;;;;4.45;1.63;;;18.30;99.90;;;;;;5006849;28;20053;-74
2022/05/07 13:13:23;;;;;;;1.65;1.55;;;18.10;99.90;;;;;;5017041;28;20493;-74
2022/05/07 13:15:49;;;;;;;6.97;4.15;;;17.90;99.90;;;;;;5019236;28;20046;-74
2022/05/07 13:18:17;;;;;;;3.40;1.85;;;17.80;99.90;;;;;;5010580;28;20045;-73
2022/05/07 13:20:43;;;;;;;11.80;2.63;;;17.80;99.90;;;;;;5002168;28;20112;-74
2022/05/07 13:23:09;;;;;;;4.28;2.53;;;17.80;99.90;;;;;;5024362;28;20049;-74